createdAt,value
2022-08-03T00:00:57.231Z,100592.55
2022-08-03T00:03:39.938Z,100596.64
2022-08-03T00:06:22.795Z,100593.96
2022-08-03T00:09:06.243Z,100597.41
2022-08-03T00:11:49.152Z,100597.69
2022-08-03T00:14:34.305Z,100598.73
2022-08-03T00:17:16.991Z,100595.90
2022-08-03T00:19:59.697Z,100597.09
2022-08-03T00:22:42.549Z,100597.05
2022-08-03T00:25:25.912Z,100596.35
2022-08-03T00:28:08.886Z,100592.16
2022-08-03T00:30:51.742Z,100597.96
2022-08-03T00:33:58.982Z,100595.81
2022-08-03T00:36:37.649Z,100596.54
2022-08-03T00:39:20.304Z,100601.55
2022-08-03T00:42:03.991Z,100602.02
2022-08-03T00:44:46.933Z,100606.61
2022-08-03T00:47:29.657Z,100606.55
2022-08-03T00:50:12.644Z,100602.88
2022-08-03T00:52:58.055Z,100597.85
2022-08-03T00:55:41.781Z,100599.56
2022-08-03T00:58:27.503Z,100597.84
2022-08-03T01:01:11.711Z,100600.39
2022-08-03T01:03:54.579Z,100597.14
2022-08-03T01:06:45.753Z,100592.64
2022-08-03T01:09:38.022Z,100592.06
2022-08-03T01:12:28.588Z,100596.91
2022-08-03T01:15:19.375Z,100594.72
2022-08-03T01:18:09.486Z,100597.24
2022-08-03T01:20:56.269Z,100597.05
2022-08-03T01:23:56.416Z,100597.42
2022-08-03T01:27:00.583Z,100598.99
2022-08-03T01:30:01.696Z,100590.44
2022-08-03T01:32:53.427Z,100590.89
2022-08-03T01:35:48.372Z,100587.65
2022-08-03T01:38:35.705Z,100584.02
2022-08-03T01:41:29.593Z,100581.91
2022-08-03T01:44:29.571Z,100580.39
2022-08-03T01:47:15.165Z,100577.54
2022-08-03T01:50:02.086Z,100575.81
2022-08-03T01:52:47.740Z,100574.45
2022-08-03T01:55:32.653Z,100577.66
2022-08-03T01:58:16.917Z,100573.85
2022-08-03T02:01:02.364Z,100570.70
2022-08-03T02:04:00.263Z,100570.65
2022-08-03T02:07:02.540Z,100569.60
2022-08-03T02:09:51.136Z,100572.65
2022-08-03T02:12:36.864Z,100571.65
2022-08-03T02:15:20.054Z,100567.67
2022-08-03T02:18:05.774Z,100567.75
2022-08-03T02:20:49.860Z,100568.71
2022-08-03T02:23:32.720Z,100563.20
2022-08-03T02:26:20.074Z,100563.20
2022-08-03T02:29:11.064Z,100565.05
2022-08-03T02:31:57.678Z,100561.36
2022-08-03T02:34:44.880Z,100559.92
2022-08-03T02:37:32.095Z,100561.70
2022-08-03T02:40:17.720Z,100561.73
2022-08-03T02:43:05.051Z,100560.25
2022-08-03T02:45:51.139Z,100560.34
2022-08-03T02:48:34.309Z,100562.44
2022-08-03T02:51:20.927Z,100560.20
2022-08-03T02:54:06.022Z,100563.13
2022-08-03T02:56:50.043Z,100563.61
2022-08-03T02:59:33.377Z,100567.02
2022-08-03T03:02:18.127Z,100568.22
2022-08-03T03:05:52.162Z,100568.07
2022-08-03T03:08:06.097Z,100569.77
2022-08-03T03:11:02.440Z,100568.84
2022-08-03T03:13:46.260Z,100573.73
2022-08-03T03:16:31.126Z,100575.30
2022-08-03T03:19:15.534Z,100573.77
2022-08-03T03:22:00.768Z,100580.55
2022-08-03T03:24:45.349Z,100582.75
2022-08-03T03:27:28.841Z,100581.48
2022-08-03T03:30:14.443Z,100583.52
2022-08-03T03:32:58.488Z,100584.48
2022-08-03T03:35:42.858Z,100583.16
2022-08-03T03:38:25.822Z,100587.83
2022-08-03T03:41:09.572Z,100587.39
2022-08-03T03:43:52.536Z,100580.48
2022-08-03T03:46:35.365Z,100584.14
2022-08-03T03:49:18.610Z,100586.07
2022-08-03T03:52:01.429Z,100587.46
2022-08-03T03:54:45.893Z,100585.79
2022-08-03T03:57:29.070Z,100581.65
2022-08-03T04:00:15.572Z,100584.19
2022-08-03T04:02:58.447Z,100584.14
2022-08-03T04:05:59.804Z,100585.36
2022-08-03T04:09:00.737Z,100589.66
2022-08-03T04:11:51.987Z,100593.11
2022-08-03T04:14:37.280Z,100592.29
2022-08-03T04:17:21.781Z,100592.81
2022-08-03T04:20:06.985Z,100594.33
2022-08-03T04:22:51.170Z,100597.48
2022-08-03T04:25:37.731Z,100601.19
2022-08-03T04:28:31.088Z,100603.19
2022-08-03T04:31:15.798Z,100598.97
2022-08-03T04:33:59.201Z,100601.50
2022-08-03T04:36:49.085Z,100603.08
2022-08-03T04:39:32.709Z,100604.27
2022-08-03T04:42:16.452Z,100609.29
2022-08-03T04:45:01.628Z,100610.04
2022-08-03T04:47:44.732Z,100614.02
2022-08-03T04:50:28.289Z,100615.57
2022-08-03T04:53:19.767Z,100610.89
2022-08-03T04:56:06.023Z,100611.11
2022-08-03T04:58:48.842Z,100610.30
2022-08-03T05:01:34.043Z,100605.35
2022-08-03T05:04:16.871Z,100611.20
2022-08-03T05:06:59.708Z,100605.94
2022-08-03T05:10:01.718Z,100599.92
2022-08-03T05:12:48.444Z,100598.63
2022-08-03T05:15:31.394Z,100603.92
2022-08-03T05:18:14.562Z,100604.48
2022-08-03T05:20:57.455Z,100602.14
2022-08-03T05:23:40.888Z,100602.99
2022-08-03T05:26:23.667Z,100600.02
2022-08-03T05:29:06.386Z,100601.33
2022-08-03T05:31:49.235Z,100605.62
2022-08-03T05:34:32.080Z,100605.48
2022-08-03T05:37:14.756Z,100608.38
2022-08-03T05:39:57.465Z,100607.65
2022-08-03T05:42:40.161Z,100610.66
2022-08-03T05:45:28.141Z,100613.56
2022-08-03T05:48:11.462Z,100613.37
2022-08-03T05:50:54.373Z,100616.41
2022-08-03T05:53:37.831Z,100618.27
2022-08-03T05:56:24.020Z,100615.31
2022-08-03T05:59:35.765Z,100616.04
2022-08-03T06:02:16.494Z,100620.71
2022-08-03T06:04:59.518Z,100619.89
2022-08-03T06:07:42.350Z,100620.52
2022-08-03T06:10:34.410Z,100621.65
2022-08-03T06:13:21.337Z,100619.80
2022-08-03T06:16:04.925Z,100624.67
2022-08-03T06:18:47.634Z,100621.94
2022-08-03T06:21:30.337Z,100622.20
2022-08-03T06:24:13.913Z,100624.02
2022-08-03T06:26:58.394Z,100620.30
2022-08-03T06:29:41.099Z,100621.96
2022-08-03T06:32:23.912Z,100621.89
2022-08-03T06:35:08.321Z,100615.23
2022-08-03T06:37:51.604Z,100619.28
2022-08-03T06:40:39.351Z,100620.42
2022-08-03T06:43:22.174Z,100624.52
2022-08-03T06:46:05.653Z,100625.33
2022-08-03T06:48:48.669Z,100625.02
2022-08-03T06:52:05.249Z,100621.14
2022-08-03T06:54:35.876Z,100622.23
2022-08-03T06:57:18.843Z,100619.86
2022-08-03T07:00:08.852Z,100616.93
2022-08-03T07:02:58.454Z,100617.88
2022-08-03T07:05:42.985Z,100614.41
2022-08-03T07:08:33.639Z,100614.04
2022-08-03T07:11:17.610Z,100612.44
2022-08-03T07:14:00.703Z,100612.00
2022-08-03T07:16:45.305Z,100614.27
2022-08-03T07:19:28.184Z,100612.81
2022-08-03T07:22:11.231Z,100616.59
2022-08-03T07:24:54.188Z,100611.05
2022-08-03T07:27:37.760Z,100615.23
2022-08-03T07:30:20.532Z,100612.58
2022-08-03T07:33:03.323Z,100609.05
2022-08-03T07:35:49.045Z,100607.25
2022-08-03T07:38:31.984Z,100604.27
2022-08-03T07:41:14.692Z,100606.97
2022-08-03T07:43:57.466Z,100602.34
2022-08-03T07:46:47.256Z,100606.73
2022-08-03T07:49:33.018Z,100609.89
2022-08-03T07:52:36.787Z,100613.64
2022-08-03T07:55:21.534Z,100605.40
2022-08-03T07:58:09.350Z,100614.30
2022-08-03T08:00:52.847Z,100615.33
2022-08-03T08:03:49.877Z,100617.25
2022-08-03T08:06:35.405Z,100618.16
2022-08-03T08:09:18.354Z,100615.77
2022-08-03T08:12:01.043Z,100614.11
2022-08-03T08:14:46.023Z,100613.94
2022-08-03T08:17:28.834Z,100612.70
2022-08-03T08:20:15.476Z,100612.11
2022-08-03T08:23:03.573Z,100610.35
2022-08-03T08:26:06.208Z,100610.20
2022-08-03T08:28:49.971Z,100612.04
2022-08-03T08:31:33.691Z,100611.91
2022-08-03T08:34:16.455Z,100609.45
2022-08-03T08:36:59.129Z,100610.98
2022-08-03T08:39:41.883Z,100612.11
2022-08-03T08:42:24.812Z,100605.71
2022-08-03T08:45:11.194Z,100606.08
2022-08-03T08:48:00.409Z,100604.33
2022-08-03T08:50:46.048Z,100604.56
2022-08-03T08:53:32.147Z,100604.54
2022-08-03T08:56:16.718Z,100599.61
2022-08-03T08:59:02.212Z,100600.30
2022-08-03T09:01:46.531Z,100598.24
2022-08-03T09:04:30.585Z,100597.62
2022-08-03T09:07:20.639Z,100592.52
2022-08-03T09:10:12.049Z,100595.73
2022-08-03T09:12:56.121Z,100595.06
2022-08-03T09:15:38.939Z,100593.70
2022-08-03T09:18:30.518Z,100591.80
2022-08-03T09:21:31.234Z,100594.46
2022-08-03T09:24:40.593Z,100590.55
2022-08-03T09:27:23.980Z,100591.71
2022-08-03T09:30:33.125Z,100591.85
2022-08-03T09:33:16.913Z,100589.91
2022-08-03T09:35:59.739Z,100585.85
2022-08-03T09:38:43.313Z,100590.58
2022-08-03T09:41:26.066Z,100590.52
2022-08-03T09:44:09.015Z,100588.26
2022-08-03T09:47:09.344Z,100586.52
2022-08-03T09:50:01.273Z,100582.64
2022-08-03T09:52:49.912Z,100577.98
2022-08-03T09:56:35.041Z,100574.52
2022-08-03T09:58:46.383Z,100579.45
2022-08-03T10:01:34.531Z,100577.08
2022-08-03T10:04:19.755Z,100574.58
2022-08-03T10:07:03.261Z,100573.37
2022-08-03T10:09:54.808Z,100571.04
2022-08-03T10:12:38.618Z,100567.59
2022-08-03T10:16:23.118Z,100558.52
2022-08-03T10:18:26.782Z,100553.05
2022-08-03T10:21:16.466Z,100556.24
2022-08-03T10:24:01.894Z,100554.23
2022-08-03T10:26:49.688Z,100553.88
2022-08-03T10:29:39.742Z,100553.46
2022-08-03T10:32:28.587Z,100554.02
2022-08-03T10:35:20.817Z,100555.04
2022-08-03T10:38:09.395Z,100551.06
2022-08-03T10:40:58.962Z,100547.58
2022-08-03T10:43:49.953Z,100552.45
2022-08-03T10:46:35.386Z,100547.66
2022-08-03T10:49:32.829Z,100549.73
2022-08-03T10:52:31.834Z,100546.38
2022-08-03T10:55:54.406Z,100544.77
2022-08-03T10:58:53.255Z,100547.77
2022-08-03T11:01:58.717Z,100543.27
2022-08-03T11:04:44.207Z,100544.73
2022-08-03T11:07:26.448Z,100541.14
2022-08-03T11:10:32.153Z,100536.15
2022-08-03T11:13:17.750Z,100533.05
2022-08-03T11:16:06.554Z,100531.85
2022-08-03T11:18:58.676Z,100532.39
2022-08-03T11:21:57.617Z,100527.94
2022-08-03T11:25:02.155Z,100524.97
2022-08-03T11:27:45.265Z,100529.67
2022-08-03T11:30:29.217Z,100526.79
2022-08-03T11:33:30.168Z,100525.64
2022-08-03T11:36:15.840Z,100525.21
2022-08-03T11:39:17.085Z,100519.02
2022-08-03T11:41:59.979Z,100514.02
2022-08-03T11:44:47.521Z,100515.98
2022-08-03T11:47:30.621Z,100512.26
2022-08-03T11:50:13.477Z,100513.73
2022-08-03T11:52:56.309Z,100514.60
2022-08-03T11:55:41.456Z,100509.20
2022-08-03T11:59:01.689Z,100507.69
2022-08-03T12:01:27.483Z,100504.80
2022-08-03T12:04:11.072Z,100499.79
2022-08-03T12:07:01.009Z,100500.54
2022-08-03T12:09:43.739Z,100499.41
2022-08-03T12:12:26.480Z,100493.30
2022-08-03T12:15:11.278Z,100490.70
2022-08-03T12:17:57.692Z,100487.52
2022-08-03T12:20:41.290Z,100482.52
2022-08-03T12:23:26.920Z,100483.06
2022-08-03T12:26:10.538Z,100484.82
2022-08-03T12:28:53.383Z,100483.44
2022-08-03T12:31:36.746Z,100482.32
2022-08-03T12:34:19.479Z,100480.13
2022-08-03T12:37:21.754Z,100471.87
2022-08-03T12:40:11.147Z,100469.02
2022-08-03T12:42:55.649Z,100473.46
2022-08-03T12:45:38.566Z,100469.13
2022-08-03T12:48:21.296Z,100469.34
2022-08-03T12:51:11.149Z,100467.05
2022-08-03T12:53:55.063Z,100464.08
2022-08-03T12:56:57.339Z,100472.05
2022-08-03T12:59:42.213Z,100467.97
2022-08-03T13:02:32.838Z,100461.99
2022-08-03T13:05:15.862Z,100464.75
2022-08-03T13:07:59.283Z,100464.23
2022-08-03T13:10:42.575Z,100466.32
2022-08-03T13:13:39.627Z,100468.39
2022-08-03T13:16:23.910Z,100468.26
2022-08-03T13:19:10.045Z,100463.67
2022-08-03T13:22:03.721Z,100461.69
2022-08-03T13:24:49.316Z,100459.27
2022-08-03T13:28:03.619Z,100457.27
2022-08-03T13:30:37.430Z,100454.22
2022-08-03T13:33:20.160Z,100459.61
2022-08-03T13:36:03.199Z,100451.34
2022-08-03T13:38:46.192Z,100454.55
2022-08-03T13:41:31.361Z,100451.83
2022-08-03T13:44:30.071Z,100450.02
2022-08-03T13:47:13.019Z,100446.74
2022-08-03T13:50:01.104Z,100446.30
2022-08-03T13:52:45.711Z,100445.37
2022-08-03T13:55:28.925Z,100444.38
2022-08-03T13:58:12.271Z,100441.73
2022-08-03T14:00:55.148Z,100440.73
2022-08-03T14:03:37.926Z,100443.17
2022-08-03T14:06:21.137Z,100435.33
2022-08-03T14:09:04.373Z,100434.84
2022-08-03T14:12:08.438Z,100425.34
2022-08-03T14:14:52.098Z,100426.79
2022-08-03T14:17:42.103Z,100421.20
2022-08-03T14:20:36.214Z,100423.11
2022-08-03T14:23:28.223Z,100422.86
2022-08-03T14:26:11.432Z,100421.58
2022-08-03T14:28:55.183Z,100418.98
2022-08-03T14:32:10.995Z,100420.45
2022-08-03T14:34:41.122Z,100414.18
2022-08-03T14:37:23.947Z,100414.66
2022-08-03T14:40:08.903Z,100411.84
2022-08-03T14:42:50.975Z,100414.33
2022-08-03T14:45:34.071Z,100410.06
2022-08-03T14:50:34.712Z,100413.91
2022-08-03T14:51:21.906Z,100413.14
2022-08-03T14:54:05.468Z,100409.94
2022-08-03T14:56:48.152Z,100407.16
2022-08-03T14:59:55.453Z,100403.39
2022-08-03T15:02:33.653Z,100403.61
2022-08-03T15:05:16.536Z,100406.95
2022-08-03T15:07:59.330Z,100398.91
2022-08-03T15:10:45.401Z,100399.12
2022-08-03T15:13:28.565Z,100399.24
2022-08-03T15:16:13.680Z,100396.05
2022-08-03T15:18:55.600Z,100394.40
2022-08-03T15:21:46.671Z,100396.55
2022-08-03T15:24:30.322Z,100393.48
2022-08-03T15:27:13.237Z,100392.58
2022-08-03T15:30:07.648Z,100391.38
2022-08-03T15:32:52.608Z,100388.58
2022-08-03T15:35:35.761Z,100385.30
2022-08-03T15:38:18.870Z,100380.41
2022-08-03T15:41:01.998Z,100382.17
2022-08-03T15:43:47.802Z,100379.52
2022-08-03T15:46:30.837Z,100380.10
2022-08-03T15:49:13.873Z,100374.48
2022-08-03T15:51:56.670Z,100372.59
2022-08-03T15:54:39.476Z,100374.94
2022-08-03T15:57:22.659Z,100374.05
2022-08-03T16:00:08.896Z,100376.37
2022-08-03T16:02:56.776Z,100372.11
2022-08-03T16:05:39.831Z,100371.13
2022-08-03T16:08:22.875Z,100369.80
2022-08-03T16:11:08.478Z,100367.66
2022-08-03T16:14:13.402Z,100367.71
2022-08-03T16:16:54.075Z,100365.46
2022-08-03T16:19:36.911Z,100360.29
2022-08-03T16:22:22.173Z,100359.69
2022-08-03T16:25:15.952Z,100353.70
2022-08-03T16:28:07.788Z,100349.71
2022-08-03T16:30:55.772Z,100350.29
2022-08-03T16:33:39.550Z,100352.42
2022-08-03T16:36:22.547Z,100348.95
2022-08-03T16:39:05.626Z,100346.73
2022-08-03T16:41:54.348Z,100348.00
2022-08-03T16:44:44.025Z,100347.80
2022-08-03T16:47:27.045Z,100349.45
2022-08-03T16:50:15.836Z,100351.02
2022-08-03T16:53:05.177Z,100349.68
2022-08-03T16:55:54.184Z,100351.17
2022-08-03T16:58:42.135Z,100354.00
2022-08-03T17:01:35.755Z,100358.27
2022-08-03T17:04:20.529Z,100357.84
2022-08-03T17:07:04.532Z,100359.05
2022-08-03T17:09:48.495Z,100356.67
2022-08-03T17:12:32.238Z,100360.39
2022-08-03T17:15:15.311Z,100361.55
2022-08-03T17:18:07.498Z,100364.50
2022-08-03T17:20:51.974Z,100362.08
2022-08-03T17:23:44.209Z,100362.58
2022-08-03T17:26:30.490Z,100365.83
2022-08-03T17:29:19.677Z,100363.96
2022-08-03T17:32:10.099Z,100369.66
2022-08-03T17:34:55.182Z,100371.65
2022-08-03T17:37:58.363Z,100372.74
2022-08-03T17:40:48.110Z,100374.71
2022-08-03T17:44:13.784Z,100375.16
2022-08-03T17:46:38.112Z,100379.67
2022-08-03T17:49:25.576Z,100379.46
2022-08-03T17:52:17.644Z,100381.46
2022-08-03T17:55:56.320Z,100380.56
2022-08-03T17:58:20.899Z,100378.64
2022-08-03T18:02:06.217Z,100386.34
2022-08-03T18:04:30.339Z,100385.69
2022-08-03T18:07:18.268Z,100388.99
2022-08-03T18:10:06.331Z,100386.88
2022-08-03T18:13:10.399Z,100389.95
2022-08-03T18:16:00.483Z,100389.85
2022-08-03T18:18:48.663Z,100394.13
2022-08-03T18:22:02.184Z,100394.09
2022-08-03T18:24:37.900Z,100394.08
2022-08-03T18:27:22.680Z,100396.16
2022-08-03T18:30:08.377Z,100402.55
2022-08-03T18:33:00.643Z,100406.92
2022-08-03T18:35:59.910Z,100408.39
2022-08-03T18:38:43.727Z,100410.88
2022-08-03T18:41:32.113Z,100411.00
2022-08-03T18:44:37.579Z,100412.08
2022-08-03T18:47:52.483Z,100414.05
2022-08-03T18:50:40.558Z,100416.11
2022-08-03T18:54:01.890Z,100418.67
2022-08-03T18:56:44.085Z,100413.86
2022-08-03T18:59:38.916Z,100414.52
2022-08-03T19:02:29.193Z,100416.92
2022-08-03T19:05:16.279Z,100422.75
2022-08-03T19:08:04.274Z,100429.08
2022-08-03T19:10:57.866Z,100426.48
2022-08-03T19:13:50.303Z,100426.17
2022-08-03T19:16:39.321Z,100430.52
2022-08-03T19:19:44.878Z,100425.17
2022-08-03T19:22:28.797Z,100429.56
2022-08-03T19:25:13.665Z,100425.24
2022-08-03T19:28:00.352Z,100427.39
2022-08-03T19:30:53.709Z,100428.08
2022-08-03T19:33:55.675Z,100428.61
2022-08-03T19:36:43.783Z,100433.14
2022-08-03T19:39:27.075Z,100429.73
2022-08-03T19:42:20.052Z,100431.65
2022-08-03T19:45:13.953Z,100436.46
2022-08-03T19:48:09.723Z,100429.97
2022-08-03T19:50:56.965Z,100426.80
2022-08-03T19:53:46.473Z,100429.90
2022-08-03T19:56:31.147Z,100430.70
2022-08-03T19:59:15.333Z,100434.18
2022-08-03T20:01:58.266Z,100439.27
2022-08-03T20:04:41.502Z,100437.98
2022-08-03T20:07:25.168Z,100436.04
2022-08-03T20:10:10.054Z,100439.01
2022-08-03T20:12:53.876Z,100443.59
2022-08-03T20:15:41.382Z,100440.44
2022-08-03T20:18:24.696Z,100440.92
2022-08-03T20:21:15.138Z,100439.70
2022-08-03T20:24:24.298Z,100440.80
2022-08-03T20:27:10.460Z,100442.45
2022-08-03T20:30:07.175Z,100447.76
2022-08-03T20:32:51.793Z,100450.35
2022-08-03T20:35:35.598Z,100447.98
2022-08-03T20:38:19.642Z,100448.53
2022-08-03T20:41:03.811Z,100447.84
2022-08-03T20:43:48.322Z,100448.59
2022-08-03T20:46:46.433Z,100446.16
2022-08-03T20:49:45.651Z,100448.27
2022-08-03T20:52:31.262Z,100446.98
2022-08-03T20:55:16.093Z,100452.23
2022-08-03T20:58:00.035Z,100453.63
2022-08-03T21:00:43.479Z,100458.29
2022-08-03T21:03:41.053Z,100458.93
2022-08-03T21:06:36.845Z,100453.61
2022-08-03T21:09:23.949Z,100450.36
2022-08-03T21:12:22.244Z,100458.20
2022-08-03T21:16:02.237Z,100452.54
2022-08-03T21:18:17.099Z,100453.01
2022-08-03T21:21:00.818Z,100452.67
2022-08-03T21:23:48.300Z,100451.62
2022-08-03T21:26:37.548Z,100454.41
2022-08-03T21:29:24.004Z,100454.86
2022-08-03T21:32:07.995Z,100453.88
2022-08-03T21:34:51.923Z,100455.76
2022-08-03T21:37:35.014Z,100458.41
2022-08-03T21:40:17.887Z,100464.74
2022-08-03T21:43:00.882Z,100464.20
2022-08-03T21:45:49.753Z,100467.39
2022-08-03T21:48:36.590Z,100466.65
2022-08-03T21:51:23.464Z,100465.75
2022-08-03T21:54:07.241Z,100466.03
2022-08-03T21:56:54.537Z,100464.30
2022-08-03T21:59:42.741Z,100467.14
2022-08-03T22:02:31.356Z,100467.69
2022-08-03T22:05:17.025Z,100467.80
2022-08-03T22:08:00.567Z,100464.80
2022-08-03T22:10:46.006Z,100464.09
2022-08-03T22:13:43.555Z,100468.70
2022-08-03T22:16:28.260Z,100470.38
2022-08-03T22:19:13.437Z,100467.09
2022-08-03T22:22:03.867Z,100469.66
2022-08-03T22:24:48.272Z,100467.62
2022-08-03T22:27:32.594Z,100465.28
2022-08-03T22:30:18.131Z,100469.65
2022-08-03T22:33:05.052Z,100468.48
2022-08-03T22:35:58.587Z,100467.55
2022-08-03T22:38:42.018Z,100467.92
2022-08-03T22:41:28.805Z,100465.20
2022-08-03T22:44:15.448Z,100466.90
2022-08-03T22:46:59.193Z,100468.20
2022-08-03T22:49:43.298Z,100471.35
2022-08-03T22:52:28.145Z,100466.42
2022-08-03T22:55:18.873Z,100467.70
2022-08-03T22:58:07.888Z,100466.29
2022-08-03T23:00:54.236Z,100466.21
2022-08-03T23:04:01.221Z,100466.60
2022-08-03T23:06:50.162Z,100463.43
2022-08-03T23:09:33.714Z,100465.73
2022-08-03T23:12:19.804Z,100462.31
2022-08-03T23:15:06.146Z,100465.70
2022-08-03T23:17:57.369Z,100465.41
2022-08-03T23:20:42.226Z,100464.98
2022-08-03T23:23:30.596Z,100469.08
2022-08-03T23:26:29.580Z,100464.50
2022-08-03T23:29:15.940Z,100467.46
2022-08-03T23:32:00.773Z,100473.09
2022-08-03T23:35:02.975Z,100475.95
2022-08-03T23:38:04.619Z,100477.40
2022-08-03T23:40:51.225Z,100474.77
2022-08-03T23:43:52.077Z,100475.91
2022-08-03T23:46:38.641Z,100479.38
2022-08-03T23:49:24.227Z,100480.23
2022-08-03T23:52:12.696Z,100484.48
2022-08-03T23:55:16.201Z,100485.80
2022-08-03T23:58:05.057Z,100485.19
